createdAt,value
2023-03-21T00:00:47.704Z,12.5692
2023-03-21T00:01:49.160Z,12.4615
2023-03-21T00:02:50.663Z,12.5846
2023-03-21T00:03:52.096Z,12.6769
2023-03-21T00:04:55.094Z,12.6769
2023-03-21T00:05:54.943Z,12.5846
2023-03-21T00:06:56.330Z,12.4923
2023-03-21T00:07:57.793Z,12.3538
2023-03-21T00:08:59.211Z,12.1692
2023-03-21T00:10:12.385Z,12.0615
2023-03-21T00:11:02.098Z,12.1231
2023-03-21T00:12:03.521Z,12.3846
2023-03-21T00:13:04.962Z,12.1538
2023-03-21T00:14:06.403Z,12.3846
2023-03-21T00:15:07.835Z,12.4308
2023-03-21T00:16:20.469Z,11.9231
2023-03-21T00:17:10.710Z,12.3231
2023-03-21T00:18:12.160Z,12.2769
2023-03-21T00:19:13.584Z,12.1077
2023-03-21T00:20:15.092Z,12.1231
2023-03-21T00:21:40.687Z,12.2000
2023-03-21T00:22:17.905Z,12.2923
2023-03-21T00:23:19.337Z,12.2615
2023-03-21T00:24:20.788Z,12.2615
2023-03-21T00:25:22.222Z,12.1692
2023-03-21T00:26:23.673Z,12.0923
2023-03-21T00:27:56.927Z,12.1077
2023-03-21T00:28:26.549Z,11.9077
2023-03-21T00:29:27.988Z,12.0154
2023-03-21T00:30:29.432Z,12.3231
2023-03-21T00:31:30.863Z,12.0769
2023-03-21T00:32:35.593Z,12.0923
2023-03-21T00:33:33.754Z,11.9385
2023-03-21T00:34:43.205Z,11.9538
2023-03-21T00:36:01.806Z,11.9538
2023-03-21T00:36:38.256Z,11.8462
2023-03-21T00:37:39.605Z,12.0000
2023-03-21T00:38:41.041Z,12.1077
2023-03-21T00:39:42.483Z,11.7538
2023-03-21T00:40:49.169Z,11.6462
2023-03-21T00:41:45.403Z,11.8308
2023-03-21T00:42:46.796Z,11.8308
2023-03-21T00:43:48.216Z,11.7385
2023-03-21T00:44:49.671Z,11.6923
2023-03-21T00:45:51.147Z,11.6923
2023-03-21T00:47:06.193Z,11.8000
2023-03-21T00:47:54.138Z,12.0308
2023-03-21T00:48:55.496Z,12.0154
2023-03-21T00:49:56.840Z,11.8154
2023-03-21T00:50:58.314Z,11.5692
2023-03-21T00:52:14.790Z,11.4615
2023-03-21T00:53:01.164Z,11.4769
2023-03-21T00:54:02.594Z,11.5385
2023-03-21T00:55:04.047Z,11.7538
2023-03-21T00:56:05.485Z,11.3846
2023-03-21T00:57:06.919Z,11.6462
2023-03-21T00:58:08.393Z,11.5231
2023-03-21T00:59:09.805Z,11.5692
2023-03-21T01:00:11.229Z,11.4923
2023-03-21T01:01:12.704Z,11.5385
2023-03-21T01:02:14.159Z,11.2769
2023-03-21T01:03:24.506Z,11.5385
2023-03-21T01:04:17.166Z,11.4154
2023-03-21T01:05:18.442Z,11.2615
2023-03-21T01:06:19.866Z,11.3231
2023-03-21T01:07:21.318Z,11.3538
2023-03-21T01:08:29.411Z,11.1231
2023-03-21T01:09:24.214Z,11.3385
2023-03-21T01:10:25.632Z,11.2615
2023-03-21T01:11:27.084Z,11.3538
2023-03-21T01:12:28.525Z,11.1846
2023-03-21T01:13:29.956Z,11.5385
2023-03-21T01:14:31.401Z,11.3692
2023-03-21T01:15:32.834Z,11.8615
2023-03-21T01:16:34.379Z,11.3538
2023-03-21T01:17:35.731Z,11.3692
2023-03-21T01:18:37.142Z,11.3538
2023-03-21T01:19:51.301Z,11.0769
2023-03-21T01:20:40.031Z,11.3538
2023-03-21T01:21:41.491Z,11.3077
2023-03-21T01:22:42.897Z,11.1846
2023-03-21T01:23:44.349Z,11.0154
2023-03-21T01:24:54.115Z,10.7385
2023-03-21T01:25:47.223Z,11.0154
2023-03-21T01:26:48.666Z,10.9692
2023-03-21T01:27:50.108Z,10.6462
2023-03-21T01:28:51.534Z,10.7538
2023-03-21T01:29:52.991Z,10.7231
2023-03-21T01:30:54.415Z,10.6769
2023-03-21T01:31:55.953Z,10.6308
2023-03-21T01:32:57.292Z,10.8462
2023-03-21T01:33:58.734Z,10.7231
2023-03-21T01:35:00.173Z,10.4154
2023-03-21T01:36:12.160Z,10.8923
2023-03-21T01:37:03.081Z,10.7692
2023-03-21T01:38:04.496Z,10.8462
2023-03-21T01:39:05.926Z,10.7692
2023-03-21T01:40:07.370Z,10.8462
2023-03-21T01:41:18.892Z,10.7538
2023-03-21T01:42:10.249Z,10.6769
2023-03-21T01:43:11.681Z,10.4615
2023-03-21T01:44:13.123Z,10.6462
2023-03-21T01:45:14.565Z,10.8615
2023-03-21T01:46:16.040Z,10.8000
2023-03-21T01:47:17.461Z,10.8923
2023-03-21T01:48:18.902Z,10.7538
2023-03-21T01:49:20.305Z,10.7538
2023-03-21T01:50:21.749Z,10.8154
2023-03-21T01:51:23.185Z,10.8462
2023-03-21T01:52:37.195Z,10.8154
2023-03-21T01:53:26.067Z,10.9385
2023-03-21T01:54:27.505Z,11.0462
2023-03-21T01:55:28.940Z,10.8615
2023-03-21T01:56:30.397Z,10.6769
2023-03-21T01:57:40.962Z,10.9385
2023-03-21T01:58:33.330Z,10.8000
2023-03-21T01:59:34.702Z,10.9538
2023-03-21T02:00:36.138Z,10.8769
2023-03-21T02:01:37.576Z,10.8000
2023-03-21T02:02:39.019Z,10.8615
2023-03-21T02:03:40.500Z,10.8615
2023-03-21T02:04:41.900Z,10.9846
2023-03-21T02:05:43.326Z,10.9692
2023-03-21T02:06:44.782Z,10.8154
2023-03-21T02:07:46.200Z,10.6769
2023-03-21T02:08:47.649Z,10.5385
2023-03-21T02:09:49.086Z,10.7385
2023-03-21T02:10:50.696Z,10.8308
2023-03-21T02:11:51.999Z,10.6923
2023-03-21T02:12:53.407Z,10.9231
2023-03-21T02:14:05.670Z,10.8154
2023-03-21T02:14:56.283Z,10.7385
2023-03-21T02:15:57.716Z,10.5538
2023-03-21T02:16:59.219Z,11.0769
2023-03-21T02:18:00.582Z,10.9385
2023-03-21T02:19:02.038Z,10.9538
2023-03-21T02:20:03.468Z,10.9846
2023-03-21T02:21:04.899Z,10.9077
2023-03-21T02:22:06.325Z,10.9077
2023-03-21T02:23:07.773Z,10.8154
2023-03-21T02:24:09.210Z,10.8462
2023-03-21T02:25:21.269Z,10.7231
2023-03-21T02:26:12.089Z,10.7231
2023-03-21T02:27:13.528Z,10.8769
2023-03-21T02:28:14.956Z,10.8462
2023-03-21T02:29:17.736Z,10.9077
2023-03-21T02:30:28.247Z,10.4769
2023-03-21T02:31:19.317Z,10.5538
2023-03-21T02:32:35.018Z,10.8615
2023-03-21T02:33:22.150Z,10.8462
2023-03-21T02:34:23.588Z,11.0000
2023-03-21T02:35:25.025Z,10.6000
2023-03-21T02:36:26.543Z,11.0462
2023-03-21T02:37:36.753Z,10.9846
2023-03-21T02:38:29.380Z,10.6769
2023-03-21T02:39:30.792Z,11.0615
2023-03-21T02:40:32.247Z,10.9385
2023-03-21T02:41:40.133Z,10.7846
2023-03-21T02:42:35.138Z,10.6923
2023-03-21T02:43:36.543Z,10.7077
2023-03-21T02:44:37.994Z,10.5231
2023-03-21T02:45:39.424Z,10.9538
2023-03-21T02:46:45.653Z,10.7385
2023-03-21T02:47:42.333Z,10.6615
2023-03-21T02:48:50.672Z,10.7538
2023-03-21T02:49:45.193Z,10.5385
2023-03-21T02:50:46.622Z,10.6769
2023-03-21T02:51:48.105Z,10.5231
2023-03-21T02:52:49.490Z,10.4769
2023-03-21T02:54:04.574Z,10.4154
2023-03-21T02:54:52.368Z,10.6769
2023-03-21T02:55:53.807Z,10.6154
2023-03-21T02:56:55.380Z,10.1385
2023-03-21T02:57:56.870Z,10.6154
2023-03-21T02:58:58.174Z,10.6923
2023-03-21T03:00:07.524Z,10.1538
2023-03-21T03:01:01.020Z,10.1692
2023-03-21T03:02:02.459Z,10.4308
2023-03-21T03:03:09.869Z,10.6923
2023-03-21T03:04:05.345Z,10.9231
2023-03-21T03:05:18.005Z,10.6154
2023-03-21T03:06:08.225Z,10.5077
2023-03-21T03:07:09.624Z,10.4769
2023-03-21T03:08:11.105Z,10.5077
2023-03-21T03:09:12.511Z,10.4615
2023-03-21T03:10:13.943Z,10.4923
2023-03-21T03:11:15.373Z,10.3385
2023-03-21T03:12:16.827Z,10.2923
2023-03-21T03:13:18.254Z,10.2308
2023-03-21T03:15:21.128Z,10.4462
2023-03-21T03:16:22.570Z,10.4615
2023-03-21T03:17:24.013Z,10.2769
2023-03-21T03:18:25.454Z,10.4615
2023-03-21T03:19:26.885Z,10.2769
2023-03-21T03:20:28.323Z,10.2923
2023-03-21T03:21:29.755Z,10.4308
2023-03-21T03:22:31.197Z,10.3538
2023-03-21T03:23:32.631Z,10.5385
2023-03-21T03:24:34.093Z,10.5846
2023-03-21T03:25:42.605Z,10.4000
2023-03-21T03:26:36.961Z,10.5846
2023-03-21T03:27:38.380Z,10.4615
2023-03-21T03:28:39.840Z,10.4923
2023-03-21T03:29:41.263Z,10.6000
2023-03-21T03:30:54.070Z,10.5538
2023-03-21T03:31:44.206Z,10.6308
2023-03-21T03:32:45.577Z,10.6462
2023-03-21T03:33:47.009Z,10.6462
2023-03-21T03:34:48.451Z,10.7385
2023-03-21T03:36:02.568Z,10.7231
2023-03-21T03:36:51.372Z,10.8615
2023-03-21T03:37:52.746Z,10.7692
2023-03-21T03:38:54.185Z,10.7692
2023-03-21T03:39:55.617Z,10.7538
2023-03-21T03:40:57.061Z,10.8000
2023-03-21T03:42:27.199Z,10.6769
2023-03-21T03:42:59.929Z,11.0000
2023-03-21T03:44:01.363Z,10.8615
2023-03-21T03:45:02.810Z,10.9077
2023-03-21T03:46:04.234Z,10.8154
2023-03-21T03:47:05.691Z,10.7385
2023-03-21T03:48:07.155Z,11.0000
2023-03-21T03:49:08.566Z,11.0154
2023-03-21T03:50:09.983Z,10.9231
2023-03-21T03:51:11.425Z,10.8462
2023-03-21T03:52:12.867Z,10.7385
2023-03-21T03:53:18.358Z,10.8000
2023-03-21T03:54:15.726Z,10.9231
2023-03-21T03:55:17.166Z,10.7538
2023-03-21T03:56:18.597Z,10.6154
2023-03-21T03:57:20.046Z,10.4462
2023-03-21T03:58:24.252Z,10.8000
2023-03-21T03:59:22.902Z,11.0000
2023-03-21T04:00:24.329Z,10.7846
2023-03-21T04:01:25.768Z,10.7692
2023-03-21T04:02:27.289Z,10.6308
2023-03-21T04:03:32.416Z,10.7692
2023-03-21T04:04:30.147Z,10.8615
2023-03-21T04:05:31.513Z,10.6000
2023-03-21T04:06:32.944Z,10.6308
2023-03-21T04:07:34.385Z,10.4462
2023-03-21T04:08:35.854Z,10.5077
2023-03-21T04:09:44.071Z,10.6154
2023-03-21T04:10:39.099Z,10.3231
2023-03-21T04:11:40.122Z,10.4308
2023-03-21T04:12:41.572Z,10.5385
2023-03-21T04:13:43.047Z,10.4154
2023-03-21T04:14:46.976Z,10.4462
2023-03-21T04:15:46.072Z,10.5077
2023-03-21T04:16:47.307Z,10.4769
2023-03-21T04:17:48.719Z,10.5077
2023-03-21T04:18:50.170Z,10.5846
2023-03-21T04:19:55.476Z,10.5231
2023-03-21T04:20:53.031Z,10.3692
2023-03-21T04:21:54.455Z,10.4000
2023-03-21T04:22:55.893Z,10.3231
2023-03-21T04:23:57.323Z,10.2769
2023-03-21T04:25:00.517Z,10.1077
2023-03-21T04:26:00.189Z,10.3385
2023-03-21T04:27:01.642Z,10.0308
2023-03-21T04:28:03.045Z,10.2923
2023-03-21T04:29:04.484Z,10.6769
2023-03-21T04:30:05.911Z,10.4462
2023-03-21T04:31:16.098Z,10.7692
2023-03-21T04:32:08.820Z,10.8154
2023-03-21T04:33:10.218Z,10.7077
2023-03-21T04:34:11.641Z,10.6923
2023-03-21T04:35:13.088Z,10.4308
2023-03-21T04:36:14.546Z,10.6000
2023-03-21T04:37:15.957Z,10.4923
2023-03-21T04:38:17.477Z,10.4769
2023-03-21T04:39:18.918Z,10.8000
2023-03-21T04:40:20.367Z,10.6462
2023-03-21T04:41:21.801Z,10.5692
2023-03-21T04:42:23.210Z,10.6769
2023-03-21T04:43:24.656Z,10.7385
2023-03-21T04:44:26.082Z,10.6615
2023-03-21T04:45:27.527Z,10.6462
2023-03-21T04:46:28.968Z,10.7538
2023-03-21T04:47:30.396Z,10.5385
2023-03-21T04:48:31.831Z,10.6308
2023-03-21T04:49:33.287Z,10.9846
2023-03-21T04:50:34.921Z,10.9077
2023-03-21T04:51:36.140Z,10.8615
2023-03-21T04:52:37.588Z,10.6154
2023-03-21T04:53:39.019Z,10.8308
2023-03-21T04:54:40.450Z,10.8923
2023-03-21T04:55:41.885Z,10.8615
2023-03-21T04:56:43.329Z,10.6308
2023-03-21T04:57:44.772Z,10.5231
2023-03-21T04:58:46.191Z,10.5538
2023-03-21T04:59:47.640Z,10.9231
2023-03-21T05:00:49.090Z,10.7692
2023-03-21T05:01:50.498Z,10.6923
2023-03-21T05:02:51.929Z,9.9538
2023-03-21T05:03:53.382Z,10.3538
2023-03-21T05:04:54.794Z,10.7846
2023-03-21T05:05:56.241Z,10.7385
2023-03-21T05:06:57.664Z,10.5538
2023-03-21T05:07:59.106Z,10.7692
2023-03-21T05:09:00.555Z,10.3385
2023-03-21T05:10:02.776Z,10.1846
2023-03-21T05:11:03.408Z,10.2308
2023-03-21T05:12:04.864Z,10.2615
2023-03-21T05:13:06.299Z,10.3077
2023-03-21T05:14:07.725Z,10.3692
2023-03-21T05:15:09.194Z,10.4923
2023-03-21T05:16:10.604Z,10.4923
2023-03-21T05:17:12.044Z,10.6154
2023-03-21T05:18:13.463Z,10.6615
2023-03-21T05:19:14.903Z,10.7385
2023-03-21T05:20:16.380Z,10.8000
2023-03-21T05:21:17.768Z,10.6308
2023-03-21T05:22:19.213Z,10.6923
2023-03-21T05:23:20.636Z,10.7538
2023-03-21T05:24:22.079Z,10.7385
2023-03-21T05:25:23.513Z,10.8154
2023-03-21T05:26:24.956Z,10.8308
2023-03-21T05:27:26.390Z,10.7077
2023-03-21T05:28:27.825Z,10.8923
2023-03-21T05:29:29.260Z,10.8615
2023-03-21T05:30:30.705Z,10.8923
2023-03-21T05:31:32.143Z,11.0000
2023-03-21T05:32:33.575Z,11.0154
2023-03-21T05:33:35.000Z,10.9077
2023-03-21T05:34:36.442Z,10.8615
2023-03-21T05:35:38.141Z,10.8769
2023-03-21T05:36:39.349Z,11.0000
2023-03-21T05:37:40.753Z,11.0615
2023-03-21T05:38:42.192Z,10.9692
2023-03-21T05:39:43.623Z,10.9231
2023-03-21T05:40:45.061Z,10.7692
2023-03-21T05:41:46.521Z,10.4769
2023-03-21T05:42:47.927Z,10.4769
2023-03-21T05:43:49.370Z,10.3385
2023-03-21T05:44:50.794Z,10.5846
2023-03-21T05:45:52.267Z,10.7538
2023-03-21T05:46:53.683Z,10.3538
2023-03-21T05:47:55.129Z,3.2462
2023-03-21T05:48:56.541Z,1.5231
2023-03-21T05:49:57.971Z,1.4000
2023-03-21T05:50:59.436Z,1.4000
2023-03-21T05:52:00.860Z,2.8615
2023-03-21T05:53:02.314Z,10.2769
2023-03-21T05:54:03.757Z,14.8462
2023-03-21T05:55:05.174Z,19.2000
2023-03-21T05:56:06.614Z,23.9231
2023-03-21T05:57:08.062Z,27.0000
2023-03-21T05:58:09.478Z,25.0615
2023-03-21T05:59:10.919Z,23.6615
2023-03-21T06:00:12.369Z,22.8462
2023-03-21T06:01:13.791Z,21.8308
2023-03-21T06:02:15.311Z,21.9077
2023-03-21T06:03:16.663Z,20.5077
2023-03-21T06:04:18.140Z,19.7077
2023-03-21T06:05:19.531Z,18.1385
2023-03-21T06:06:20.972Z,17.5846
2023-03-21T06:07:22.406Z,17.3385
2023-03-21T06:08:23.833Z,17.2000
2023-03-21T06:09:25.274Z,18.3538
2023-03-21T06:10:26.702Z,18.6000
2023-03-21T06:11:28.166Z,18.0462
2023-03-21T06:12:29.580Z,17.2462
2023-03-21T06:13:31.018Z,16.7385
2023-03-21T06:14:32.459Z,15.2462
2023-03-21T06:15:33.880Z,13.0308
2023-03-21T06:16:35.323Z,11.7077
2023-03-21T06:17:36.754Z,12.6923
2023-03-21T06:18:38.196Z,12.4769
2023-03-21T06:19:39.630Z,12.1231
2023-03-21T06:20:41.056Z,11.7385
2023-03-21T06:21:42.520Z,11.6769
2023-03-21T06:22:43.934Z,10.8769
2023-03-21T06:23:45.376Z,11.5692
2023-03-21T06:24:46.802Z,10.8923
2023-03-21T06:25:48.253Z,9.3385
2023-03-21T06:26:49.683Z,8.7692
2023-03-21T06:27:51.119Z,8.8000
2023-03-21T06:28:52.540Z,8.3846
2023-03-21T06:29:53.987Z,8.0154
2023-03-21T06:30:55.501Z,9.2923
2023-03-21T06:31:56.867Z,11.6769
2023-03-21T06:32:58.327Z,13.0000
2023-03-21T06:33:59.733Z,13.3231
2023-03-21T06:35:01.168Z,12.5077
2023-03-21T06:36:02.621Z,11.5538
2023-03-21T06:37:04.051Z,11.2154
2023-03-21T06:38:05.516Z,11.2923
2023-03-21T06:39:06.917Z,10.7231
2023-03-21T06:40:08.364Z,10.4923
2023-03-21T06:41:09.780Z,10.2615
2023-03-21T06:42:11.233Z,9.6154
2023-03-21T06:43:12.669Z,9.5846
2023-03-21T06:44:14.144Z,9.8308
2023-03-21T06:45:15.542Z,8.6923
2023-03-21T06:46:17.005Z,7.2000
2023-03-21T06:47:18.426Z,8.0000
2023-03-21T06:48:19.954Z,8.5077
2023-03-21T06:49:21.301Z,10.2769
2023-03-21T06:50:22.732Z,11.2615
2023-03-21T06:51:24.169Z,11.4769
2023-03-21T06:52:25.607Z,10.2462
2023-03-21T06:53:27.038Z,9.9846
2023-03-21T06:54:28.475Z,8.5077
2023-03-21T06:55:29.896Z,8.1692
2023-03-21T06:56:31.337Z,9.4615
2023-03-21T06:57:32.777Z,11.1385
2023-03-21T06:58:34.224Z,11.0923
2023-03-21T06:59:35.641Z,10.7231
2023-03-21T07:00:37.121Z,12.3846
2023-03-21T07:01:38.538Z,13.0308
2023-03-21T07:02:40.040Z,12.5846
2023-03-21T07:03:41.397Z,12.4000
2023-03-21T07:04:42.836Z,11.4154
2023-03-21T07:05:44.262Z,11.5846
2023-03-21T07:06:45.729Z,11.5077
2023-03-21T07:07:47.143Z,10.4923
2023-03-21T07:08:48.585Z,10.8769
2023-03-21T07:09:50.018Z,11.7231
2023-03-21T07:10:51.451Z,10.8462
2023-03-21T07:11:52.903Z,9.7385
2023-03-21T07:12:54.339Z,9.0615
2023-03-21T07:13:55.780Z,8.7385
2023-03-21T07:14:57.210Z,8.3077
2023-03-21T07:15:58.660Z,7.7692
2023-03-21T07:17:00.185Z,7.4615
2023-03-21T07:18:01.527Z,7.4154
2023-03-21T07:19:02.974Z,6.9692
2023-03-21T07:20:04.413Z,7.4615
2023-03-21T07:21:05.856Z,7.2154
2023-03-21T07:22:07.322Z,7.3846
2023-03-21T07:23:08.741Z,7.6615
2023-03-21T07:24:10.170Z,7.5385
2023-03-21T07:25:11.687Z,7.7846
2023-03-21T07:26:13.069Z,7.5385
2023-03-21T07:27:14.508Z,7.9538
2023-03-21T07:28:15.923Z,7.7692
2023-03-21T07:29:17.387Z,8.5231
2023-03-21T07:30:18.810Z,8.0308
2023-03-21T07:31:20.277Z,8.7538
2023-03-21T07:32:21.683Z,9.0923
2023-03-21T07:33:23.157Z,8.5692
2023-03-21T07:34:24.554Z,9.2154
2023-03-21T07:35:26.021Z,10.2308
2023-03-21T07:36:27.436Z,9.7846
2023-03-21T07:37:28.906Z,10.6154
2023-03-21T07:38:30.318Z,9.5846
2023-03-21T07:39:31.761Z,9.6154
2023-03-21T07:40:33.215Z,10.0923
2023-03-21T07:41:34.641Z,10.0615
2023-03-21T07:42:36.090Z,9.8923
2023-03-21T07:43:39.211Z,9.3385
2023-03-21T17:02:34.837Z,3.3857
2023-03-21T17:03:36.294Z,4.3538
2023-03-21T17:04:37.754Z,4.4923
2023-03-21T17:05:39.145Z,4.7231
2023-03-21T17:06:40.575Z,5.0462
2023-03-21T17:07:42.005Z,5.6154
2023-03-21T17:08:43.439Z,5.8615
2023-03-21T17:09:44.880Z,6.2769
2023-03-21T17:10:46.314Z,6.6769
2023-03-21T17:11:47.739Z,6.8462
2023-03-21T17:12:49.186Z,7.2615
2023-03-21T17:13:50.601Z,7.2615
2023-03-21T17:14:52.038Z,7.4000
2023-03-21T17:15:53.524Z,7.4769
2023-03-21T17:16:54.983Z,7.7077
2023-03-21T17:17:56.341Z,7.6769
2023-03-21T17:18:57.785Z,7.9231
2023-03-21T17:19:59.244Z,8.2000
2023-03-21T17:21:00.667Z,7.9692
2023-03-21T17:22:02.082Z,7.7692
2023-03-21T17:23:03.525Z,7.5846
2023-03-21T17:24:04.964Z,7.1538
2023-03-21T17:25:06.388Z,7.0923
2023-03-21T17:26:07.821Z,6.8615
2023-03-21T17:27:09.262Z,7.0308
2023-03-21T17:28:10.701Z,7.2308
2023-03-21T17:29:12.126Z,7.0000
2023-03-21T17:30:13.626Z,6.9692
2023-03-21T17:31:15.058Z,7.1846
2023-03-21T17:32:16.431Z,7.1385
2023-03-21T17:33:17.880Z,7.0923
2023-03-21T17:34:19.288Z,7.3231
2023-03-21T17:35:20.751Z,7.1077
2023-03-21T17:36:22.142Z,6.9846
2023-03-21T17:37:23.594Z,7.8923
2023-03-21T17:38:25.009Z,8.0923
2023-03-21T17:39:26.442Z,8.2462
2023-03-21T17:40:27.873Z,7.9692
2023-03-21T17:41:29.309Z,7.8769
2023-03-21T17:42:30.737Z,8.0769
2023-03-21T17:43:32.178Z,7.6923
2023-03-21T17:44:33.590Z,7.8615
2023-03-21T17:45:35.027Z,7.8769
2023-03-21T17:46:36.513Z,7.8923
2023-03-21T17:47:37.913Z,7.5385
2023-03-21T17:48:39.333Z,7.3077
2023-03-21T17:49:40.759Z,7.1385
2023-03-21T17:50:42.185Z,7.2308
2023-03-21T17:51:43.632Z,7.3846
2023-03-21T17:52:45.058Z,7.3692
2023-03-21T17:53:46.487Z,7.3538
2023-03-21T17:54:47.951Z,7.1846
2023-03-21T17:55:49.377Z,7.0462
2023-03-21T17:56:50.801Z,7.0615
2023-03-21T17:57:52.239Z,6.9077
2023-03-21T17:58:53.665Z,6.8615
2023-03-21T17:59:55.108Z,6.9692
2023-03-21T18:00:56.546Z,6.8769
2023-03-21T18:01:58.023Z,6.1692
2023-03-21T18:02:59.490Z,6.2462
2023-03-21T18:04:00.889Z,6.2615
2023-03-21T18:05:02.396Z,6.6000
2023-03-21T18:06:03.736Z,6.6308
2023-03-21T18:07:06.919Z,6.7385
2023-03-21T18:08:11.037Z,7.0615
2023-03-21T18:09:08.024Z,7.0462
2023-03-21T18:10:09.467Z,7.5231
2023-03-21T18:11:10.899Z,7.6769
2023-03-21T18:12:12.329Z,7.7846
2023-03-21T18:13:13.763Z,7.7846
2023-03-21T18:14:18.081Z,7.8000
2023-03-21T18:15:18.917Z,7.8000
2023-03-21T18:16:18.112Z,7.6923
2023-03-21T18:17:19.478Z,7.7538
2023-03-21T18:18:20.918Z,7.8462
2023-03-21T18:19:22.344Z,7.8769
2023-03-21T18:20:24.258Z,7.5538
2023-03-21T18:21:26.296Z,7.4154
2023-03-21T18:22:26.648Z,7.4308
2023-03-21T18:23:28.079Z,7.5077
2023-03-21T18:24:29.519Z,7.4308
2023-03-21T18:25:30.934Z,7.5385
2023-03-21T18:26:32.429Z,7.4769
2023-03-21T18:27:35.301Z,7.3846
2023-03-21T18:28:35.228Z,7.3385
2023-03-21T18:31:00.286Z,7.3846
2023-03-21T18:31:39.529Z,7.3385
2023-03-21T18:32:41.015Z,7.0154
2023-03-21T18:33:42.389Z,6.1846
2023-03-21T18:34:43.831Z,6.2923
2023-03-21T18:35:46.374Z,6.7846
2023-03-21T18:36:49.141Z,7.0769
2023-03-21T18:37:48.134Z,7.3077
2023-03-21T18:38:49.538Z,7.5692
2023-03-21T18:39:50.976Z,7.6308
2023-03-21T18:40:52.395Z,7.6615
2023-03-21T18:41:57.762Z,7.6462
2023-03-21T18:44:05.438Z,7.3077
2023-03-21T18:44:58.189Z,7.3692
2023-03-21T18:45:59.571Z,7.6308
2023-03-21T18:47:01.018Z,7.5077
2023-03-21T18:48:02.463Z,7.5385
2023-03-21T18:49:33.941Z,7.4154
2023-03-21T18:50:14.125Z,7.5692
2023-03-21T18:51:06.718Z,7.6615
2023-03-21T18:52:08.175Z,7.8154
2023-03-21T18:53:09.572Z,7.8308
2023-03-21T18:54:11.013Z,7.8000
2023-03-21T18:55:12.441Z,7.4462
2023-03-21T18:56:40.797Z,7.6923
2023-03-21T18:58:16.744Z,7.5846
2023-03-21T18:59:18.171Z,7.3231
2023-03-21T19:00:19.646Z,7.5385
2023-03-21T19:01:21.165Z,7.5231
2023-03-21T19:02:22.633Z,7.6615
2023-03-21T19:03:35.893Z,7.7846
2023-03-21T19:04:30.045Z,7.6615
2023-03-21T19:05:26.836Z,7.3385
2023-03-21T19:06:28.237Z,7.7538
2023-03-21T19:07:29.644Z,7.6000
2023-03-21T19:08:31.120Z,7.6000
2023-03-21T19:09:32.499Z,7.4308
2023-03-21T19:10:33.944Z,7.2154
2023-03-21T19:11:35.395Z,7.5692
2023-03-21T19:12:36.822Z,7.6000
2023-03-21T19:13:38.224Z,7.6462
2023-03-21T19:14:39.662Z,7.5231
2023-03-21T19:15:41.525Z,7.4769
2023-03-21T19:17:08.476Z,7.6154
2023-03-21T19:18:54.519Z,7.2000
2023-03-21T19:19:46.908Z,6.5692
2023-03-21T19:20:48.264Z,6.5385
2023-03-21T19:21:49.692Z,6.6000
2023-03-21T19:22:51.141Z,6.5231
2023-03-21T19:24:25.259Z,6.7077
2023-03-21T19:24:54.003Z,7.2000
2023-03-21T19:25:55.420Z,7.6154
2023-03-21T19:26:56.858Z,7.7692
2023-03-21T19:27:58.300Z,7.9231
2023-03-21T19:28:59.729Z,7.9846
2023-03-21T19:30:13.466Z,8.1385
2023-03-21T19:31:02.590Z,8.0615
2023-03-21T19:32:04.088Z,8.0923
2023-03-21T19:33:05.472Z,8.1385
2023-03-21T19:34:06.889Z,8.0154
2023-03-21T19:35:08.366Z,7.9538
2023-03-21T19:36:20.930Z,7.7231
2023-03-21T19:37:11.240Z,7.5692
2023-03-21T19:38:12.633Z,7.5538
2023-03-21T19:39:14.072Z,7.5846
2023-03-21T19:40:15.511Z,7.6000
2023-03-21T19:41:16.959Z,7.5692
2023-03-21T19:42:18.474Z,7.5385
2023-03-21T19:43:32.270Z,7.5692
2023-03-21T19:44:21.249Z,7.4308
2023-03-21T19:45:22.679Z,7.4769
2023-03-21T19:46:24.113Z,7.4462
2023-03-21T19:47:25.562Z,7.4462
2023-03-21T19:48:27.179Z,7.4769
2023-03-21T19:49:48.535Z,7.2615
2023-03-21T19:51:24.467Z,7.5077
2023-03-21T19:51:31.582Z,7.3077
2023-03-21T19:52:32.731Z,7.2154
2023-03-21T19:53:34.163Z,7.2000
2023-03-21T19:54:35.591Z,7.1231
2023-03-21T19:55:37.030Z,7.2308
2023-03-21T19:56:38.451Z,7.3538
2023-03-21T19:57:39.939Z,7.4308
2023-03-21T19:58:41.330Z,7.3231
2023-03-21T19:59:42.775Z,7.5231
2023-03-21T20:00:44.205Z,7.5692
2023-03-21T20:01:45.998Z,7.5385
2023-03-21T20:02:47.129Z,7.6462
2023-03-21T20:03:48.573Z,7.7077
2023-03-21T20:04:49.950Z,7.6769
2023-03-21T20:05:51.461Z,7.5846
2023-03-21T20:06:52.817Z,7.8000
2023-03-21T20:07:54.265Z,7.7231
2023-03-21T20:09:41.213Z,7.7692
2023-03-21T20:09:57.576Z,7.8154
2023-03-21T20:10:58.562Z,8.1077
2023-03-21T20:12:00.012Z,7.9538
2023-03-21T20:13:01.450Z,7.9385
2023-03-21T20:14:02.898Z,7.8000
2023-03-21T20:15:16.661Z,7.0308
2023-03-21T20:16:05.791Z,6.5538
2023-03-21T20:17:07.239Z,6.3692
2023-03-21T20:18:08.632Z,6.3385
2023-03-21T20:19:10.073Z,6.3692
2023-03-21T20:20:11.508Z,6.4769
2023-03-21T20:21:17.667Z,6.4923
2023-03-21T20:22:24.515Z,6.6769
2023-03-21T20:23:16.093Z,7.0308
2023-03-21T20:24:17.240Z,7.0154
2023-03-21T20:25:18.665Z,7.0615
2023-03-21T20:26:20.098Z,7.1692
2023-03-21T20:27:21.524Z,7.2308
2023-03-21T20:28:27.128Z,7.2154
2023-03-21T20:30:25.841Z,8.4308
2023-03-21T20:31:27.391Z,8.2462
2023-03-21T20:32:28.713Z,8.4923
2023-03-21T20:33:30.146Z,8.7538
2023-03-21T20:34:31.598Z,8.3385
2023-03-21T20:36:23.681Z,7.8615
2023-03-21T20:36:40.442Z,7.6769
2023-03-21T20:37:35.954Z,7.5231
2023-03-21T20:38:37.333Z,7.4000
2023-03-21T20:39:38.753Z,7.5385
2023-03-21T20:40:40.537Z,7.4308
2023-03-21T20:41:41.629Z,7.4000
2023-03-21T20:42:43.078Z,7.4923
2023-03-21T20:44:57.940Z,7.4308
2023-03-21T20:45:47.377Z,7.6923
2023-03-21T20:46:48.902Z,7.7385
2023-03-21T20:47:50.278Z,7.9692
2023-03-21T20:48:51.717Z,8.1231
2023-03-21T20:49:53.126Z,8.0769
2023-03-21T20:50:58.883Z,8.2000
2023-03-21T20:52:49.823Z,8.3846
2023-03-21T20:53:06.957Z,8.3077
2023-03-21T20:53:58.941Z,8.0923
2023-03-21T20:55:00.340Z,8.1231
2023-03-21T20:56:01.757Z,8.1538
2023-03-21T20:57:03.402Z,8.0462
2023-03-21T20:58:26.761Z,8.2923
2023-03-21T20:59:17.398Z,7.7231
2023-03-21T21:00:07.492Z,7.4615
2023-03-21T21:01:08.996Z,7.8154
2023-03-21T21:02:10.362Z,7.7538
2023-03-21T21:03:11.894Z,7.6308
2023-03-21T21:04:15.170Z,7.4000
2023-03-21T21:05:27.456Z,7.3077
2023-03-21T21:06:16.231Z,7.2923
2023-03-21T21:07:17.586Z,7.4615
2023-03-21T21:08:19.000Z,7.6154
2023-03-21T21:09:20.433Z,7.6000
2023-03-21T21:10:22.368Z,7.6000
2023-03-21T21:12:24.688Z,7.6615
2023-03-21T21:13:26.099Z,7.6308
2023-03-21T21:14:27.544Z,7.6154
2023-03-21T21:15:28.974Z,7.6923
2023-03-21T21:16:30.421Z,7.6154
2023-03-21T21:17:54.483Z,7.6923
2023-03-21T21:18:33.229Z,7.4308
2023-03-21T21:19:34.661Z,6.9692
2023-03-21T21:20:36.420Z,7.0154
2023-03-21T21:21:37.522Z,6.8308
2023-03-21T21:22:39.327Z,7.2308
2023-03-21T21:23:40.339Z,7.3077
2023-03-21T21:24:41.752Z,7.4000
2023-03-21T21:25:43.196Z,7.5231
2023-03-21T21:26:44.631Z,7.6154
2023-03-21T21:27:46.034Z,7.8154
2023-03-21T21:28:47.457Z,7.6769
2023-03-21T21:29:48.888Z,7.5846
2023-03-21T21:30:50.458Z,7.2923
2023-03-21T21:31:51.750Z,7.5846
2023-03-21T21:32:53.156Z,7.6154
2023-03-21T21:33:54.605Z,7.5077
2023-03-21T21:34:56.033Z,7.6615
2023-03-21T21:35:57.502Z,7.6154
2023-03-21T21:36:58.917Z,7.5231
2023-03-21T21:38:00.301Z,7.4923
2023-03-21T21:39:01.718Z,7.2462
2023-03-21T21:40:03.155Z,7.3231
2023-03-21T21:41:04.566Z,7.3538
2023-03-21T21:42:05.993Z,7.3077
2023-03-21T21:43:07.420Z,7.3538
2023-03-21T21:44:08.849Z,7.4154
2023-03-21T21:45:10.359Z,7.2462
2023-03-21T21:46:11.742Z,7.2308
2023-03-21T21:47:13.131Z,7.2615
2023-03-21T21:48:14.572Z,7.2154
2023-03-21T21:49:15.976Z,7.4308
2023-03-21T21:50:17.406Z,6.3077
2023-03-21T21:51:18.832Z,2.4154
2023-03-21T21:52:20.276Z,1.7231
2023-03-21T21:53:21.683Z,1.6000
2023-03-21T21:54:23.109Z,1.9846
2023-03-21T21:55:24.529Z,4.4462
2023-03-21T21:56:25.966Z,7.9846
2023-03-21T21:57:27.401Z,9.8154
2023-03-21T21:58:28.822Z,11.6923
2023-03-21T21:59:30.236Z,12.9538